Latest Weather Observations for Snowtown

IDS60801

Issued at 9:51 pm CST Thursday 24 September 2020 (issued every 10 minutes, with the page automatically refreshed every 10 minutes)

About weather observations | Map of weather stations | Latest weather observations for SA | Other Formats
Station Details ID: 021133 Name: RAYVILLE PARK Lat: -33.77 Lon: 138.22 Height: 109.1 m
Data from the previous 72 hours. | See also: Recent months at Snowtown
Date/Time
CST
Temp
°C
App
Temp
°C
Dew
Point
°C
Rel
Hum
%
Delta-T
°C
Wind Press
QNH
hPa
Press
MSL
hPa
Rain since
9am
mm
Dir  Spd
km/h
Gust
km/h
Spd
kts
Gust
kts
24/09:30pm 7.3 3.1 5.8 90 0.7 W 17 20 9 11 1011.3 1011.3 7.0
24/09:00pm 7.4 2.3 5.9 90 0.7 WSW 22 35 12 19 1011.6 1011.6 7.0
24/08:30pm 8.4 2.2 6.2 86 1.0 W 28 37 15 20 1011.8 1011.8 6.8
24/08:00pm 8.9 4.0 7.0 88 0.9 WSW 22 30 12 16 1011.8 1011.8 6.6
24/07:30pm 8.9 5.1 7.5 91 0.7 W 17 20 9 11 1011.6 1011.6 6.4
24/07:00pm 8.9 4.1 7.2 89 0.8 WSW 22 32 12 17 1011.6 1011.6 6.2
24/06:30pm 10.4 4.4 7.1 80 1.6 WSW 28 37 15 20 1011.2 1011.2 4.6
24/06:00pm 10.6 6.2 7.5 81 1.5 W 20 28 11 15 1011.0 1011.0 4.6
24/05:30pm 11.0 5.0 8.6 85 1.2 W 30 41 16 22 1011.0 1011.0 4.6
24/05:00pm 11.4 6.3 9.3 87 1.1 W 26 35 14 19 1010.9 1010.9 4.6
24/04:30pm 11.3 5.9 9.6 89 0.9 W 28 39 15 21 1011.1 1011.1 4.6
24/04:00pm 11.1 4.4 9.7 91 0.7 W 35 48 19 26 1011.4 1011.4 4.4
24/03:38pm 11.0 4.6 9.3 89 0.9 WNW 33 52 18 28 1011.5 1011.5 3.4
24/03:30pm 11.2 5.1 9.6 90 0.8 WNW 32 43 17 23 1011.6 1011.6 2.8
24/03:13pm 11.1 5.3 9.5 90 0.8 W 30 50 16 27 1011.8 1011.8 2.2
24/03:00pm 11.0 4.8 9.3 89 0.9 W 32 43 17 23 1012.0 1012.0 1.4
24/02:49pm 11.0 2.9 8.6 85 1.2 WNW 41 54 22 29 1012.0 1012.0 0.8
24/02:30pm 13.4 4.9 7.0 65 3.1 WNW 41 59 22 32 1011.5 1011.5 0.2
24/02:24pm 14.8 7.1 5.3 53 4.5 NW 35 59 19 32 1011.5 1011.5 0.2
24/02:00pm 15.3 7.9 6.8 57 4.2 NW 35 46 19 25 1011.7 1011.7 0.2
24/01:40pm 16.2 8.7 4.3 45 5.6 NW 33 52 18 28 1012.0 1012.0 0.2
24/01:30pm 16.5 8.8 5.2 47 5.4 NW 35 46 19 25 1012.3 1012.3 0.2
24/01:00pm 15.8 8.6 5.1 49 5.1 NW 32 44 17 24 1013.4 1013.4 0.2
24/12:50pm 16.2 8.8 4.9 47 5.4 WNW 33 52 18 28 1013.7 1013.7 0.2
24/12:30pm 14.8 7.5 4.5 50 4.8 WNW 32 44 17 24 1014.3 1014.3 0.2
24/12:13pm 14.5 8.1 5.0 53 4.5 WNW 28 46 15 25 1014.6 1014.6 0.0
24/12:00pm 14.4 7.8 6.0 57 4.0 NW 30 41 16 22 1015.1 1015.1 0.0
24/11:30am 13.5 6.8 5.7 59 3.7 NW 30 37 16 20 1015.7 1015.7 0.0
24/11:00am 12.9 7.4 5.8 62 3.4 WNW 24 37 13 20 1016.3 1016.3 0.0
24/10:30am 13.6 7.7 5.7 59 3.7 WNW 26 39 14 21 1016.8 1016.8 0.0
24/10:00am 13.5 7.4 6.8 64 3.3 NW 28 39 15 21 1017.3 1017.3 0.0
24/09:30am 13.3 8.7 8.0 70 2.6 WNW 22 32 12 17 1017.8 1017.8 0.0
24/09:00am 12.0 7.6 7.5 74 2.2 NW 20 28 11 15 1018.2 1018.2 4.4
24/08:30am 9.9 5.8 7.7 86 1.1 NW 19 26 10 14 1018.7 1018.7 4.4
24/08:00am 9.6 6.2 7.5 87 1.0 NW 15 24 8 13 1018.8 1018.8 4.2
24/07:30am 10.2 6.1 7.8 85 1.2 NW 19 22 10 12 1018.5 1018.5 4.2
24/07:00am 8.5 5.0 7.1 91 0.7 NW 15 19 8 10 1018.4 1018.4 4.2
24/06:30am 7.4 3.3 6.3 93 0.5 WNW 17 19 9 10 1018.3 1018.3 4.2
24/06:00am 7.2 3.9 6.3 94 0.4 WNW 13 17 7 9 1018.1 1018.1 4.2
24/05:30am 7.8 4.3 7.1 95 0.3 WNW 15 17 8 9 1018.1 1018.1 4.2
24/05:00am 8.0 4.9 7.2 95 0.4 NW 13 17 7 9 1018.3 1018.3 4.0
24/04:30am 6.8 4.2 6.2 96 0.3 NNW 9 13 5 7 1018.5 1018.5 4.0
24/04:00am 5.2 2.8 4.3 94 0.4 NNW 6 7 3 4 1018.6 1018.6 4.0
24/03:30am 6.4 4.1 5.5 94 0.4 E 7 11 4 6 1018.7 1018.7 4.0
24/03:00am 6.9 4.6 5.7 92 0.5 W 7 9 4 5 1018.8 1018.8 4.0
24/02:30am 8.0 5.6 7.1 94 0.4 W 9 13 5 7 1019.2 1019.2 4.0
24/02:00am 8.4 5.8 7.6 95 0.4 W 11 15 6 8 1019.6 1019.6 4.0
24/01:30am 4.7 2.1 3.0 89 0.7 S 6 7 3 4 1019.9 1019.9 4.0
24/01:00am 7.2 5.0 6.3 94 0.4 SSW 7 11 4 6 1020.2 1020.2 4.0
24/12:30am 6.9 4.8 5.8 93 0.5 SSW 6 7 3 4 1020.4 1020.4 4.0
24/12:00am 7.5 5.3 6.3 92 0.5 SW 7 9 4 5 1020.8 1020.9 4.0
 
Date/Time
CST
Temp
°C
App
Temp
°C
Dew
Point
°C
Rel
Hum
%
Delta-T
°C
Wind Press
QNH
hPa
Press
MSL
hPa
Rain since
9am
mm
Dir  Spd
km/h
Gust
km/h
Spd
kts
Gust
kts
23/11:30pm 8.7 6.4 7.5 92 0.6 SW 9 13 5 7 1020.9 1021.0 4.0
23/11:00pm 9.3 5.3 8.2 93 0.5 WSW 19 26 10 14 1021.3 1021.4 4.0
23/10:30pm 8.5 6.1 7.1 91 0.7 WSW 9 15 5 8 1021.2 1021.3 4.0
23/10:00pm 8.7 5.9 7.0 89 0.8 WSW 11 15 6 8 1021.6 1021.7 4.0
23/09:30pm 9.7 5.5 8.1 90 0.8 SW 20 28 11 15 1021.7 1021.8 4.0
23/09:00pm 8.7 5.9 6.8 88 0.9 WSW 11 17 6 9 1021.7 1021.8 4.0
23/08:30pm 10.3 5.6 7.7 84 1.3 SSW 22 30 12 16 1021.4 1021.5 4.0
23/08:00pm 10.3 6.5 7.5 83 1.3 WSW 17 26 9 14 1021.6 1021.7 4.0
23/07:30pm 11.0 7.2 7.5 79 1.7 SW 17 24 9 13 1021.1 1021.2 4.0
23/07:00pm 11.2 7.6 6.9 75 2.1 WSW 15 19 8 10 1021.1 1021.2 4.0
23/06:30pm 11.9 7.9 6.8 71 2.4 SW 17 20 9 11 1020.9 1021.0 4.0
23/06:00pm 12.5 8.2 7.0 69 2.7 SW 19 26 10 14 1020.6 1020.7 4.0
23/05:30pm 13.3 8.3 6.4 63 3.3 SW 22 30 12 16 1020.4 1020.4 4.0
23/05:00pm 14.1 8.7 6.2 59 3.8 SW 24 30 13 16 1020.3 1020.3 4.0
23/04:30pm 15.4 9.2 6.2 54 4.5 SW 28 41 15 22 1020.0 1020.0 4.0
23/04:00pm 15.8 9.3 4.8 48 5.2 SW 28 43 15 23 1019.8 1019.8 4.0
23/03:30pm 15.5 8.5 6.2 54 4.5 SW 32 39 17 21 1019.7 1019.7 4.0
23/03:00pm 16.1 8.9 5.7 50 5.0 WSW 33 52 18 28 1019.8 1019.8 4.0
23/02:30pm 16.7 10.4 7.4 54 4.7 WSW 30 43 16 23 1019.8 1019.8 4.0
23/02:00pm 14.4 8.0 9.2 71 2.7 WSW 33 46 18 25 1020.0 1020.0 4.0
23/01:30pm 14.9 10.0 11.3 79 1.9 WSW 28 43 15 23 1020.2 1020.2 4.0
23/01:00pm 13.4 7.8 10.2 81 1.7 SW 30 39 16 21 1020.2 1020.2 3.6
23/12:30pm 12.1 6.0 9.7 85 1.2 WSW 32 44 17 24 1020.3 1020.3 3.6
23/12:00pm 12.7 6.6 9.7 82 1.5 WSW 32 44 17 24 1020.5 1020.5 2.2
23/11:30am 11.7 6.1 10.1 90 0.8 WSW 30 43 16 23 1020.7 1020.8 1.8
23/11:00am 13.2 7.1 9.6 79 1.8 W 32 44 17 24 1020.5 1020.5 1.0
23/10:30am 13.1 8.6 9.9 81 1.6 W 24 32 13 17 1020.7 1020.8 0.6
23/10:00am 11.1 5.7 9.4 89 0.9 SW 28 35 15 19 1020.9 1021.0 0.6
23/09:30am 13.5 9.7 9.7 78 2.0 WSW 20 30 11 16 1020.6 1020.7 0.0
23/09:00am 13.0 7.8 8.7 75 2.2 W 26 39 14 21 1020.6 1020.7 0.2
23/08:30am 12.1 6.5 8.9 81 1.6 W 28 43 15 23 1020.5 1020.5 0.0
23/08:00am 11.0 5.2 7.9 81 1.5 W 28 37 15 20 1020.4 1020.4 0.0
23/07:30am 9.9 5.2 7.7 86 1.1 W 22 28 12 15 1020.2 1020.2 0.0
23/07:00am 10.2 5.5 6.2 76 1.9 W 20 28 11 15 1019.8 1019.8 0.0
23/06:30am 9.6 4.4 5.4 75 1.9 W 22 30 12 16 1019.5 1019.5 0.0
23/06:00am 9.2 4.5 5.0 75 1.9 W 19 26 10 14 1019.3 1019.3 0.0
23/05:30am 8.3 4.3 4.7 78 1.6 W 15 19 8 10 1018.9 1018.9 0.0
23/05:00am 8.1 4.1 4.9 80 1.4 W 15 20 8 11 1018.6 1018.6 0.0
23/04:30am 8.1 4.6 5.4 83 1.2 W 13 17 7 9 1018.5 1018.5 0.0
23/04:00am 8.9 5.1 5.8 81 1.4 W 15 19 8 10 1018.4 1018.4 0.0
23/03:30am 8.7 4.9 5.6 81 1.4 W 15 17 8 9 1018.2 1018.2 0.0
23/03:00am 8.5 5.0 5.6 82 1.3 W 13 17 7 9 1018.3 1018.3 0.0
23/02:30am 8.6 4.7 5.4 80 1.4 W 15 19 8 10 1018.3 1018.3 0.0
23/02:00am 9.1 4.5 5.5 78 1.6 W 19 22 10 12 1018.5 1018.5 0.0
23/01:30am 9.2 4.5 5.2 76 1.8 W 19 22 10 12 1018.6 1018.6 0.0
23/01:00am 9.0 5.1 5.2 77 1.7 W 15 20 8 11 1018.8 1018.8 0.0
23/12:30am 8.9 4.5 4.7 75 1.9 W 17 19 9 10 1018.8 1018.8 0.0
23/12:00am 9.6 5.3 5.2 74 2.0 W 17 22 9 12 1018.9 1018.9 0.0
 
Date/Time
CST
Temp
°C
App
Temp
°C
Dew
Point
°C
Rel
Hum
%
Delta-T
°C
Wind Press
QNH
hPa
Press
MSL
hPa
Rain since
9am
mm
Dir  Spd
km/h
Gust
km/h
Spd
kts
Gust
kts
22/11:30pm 8.6 5.3 4.4 75 1.9 W 11 13 6 7 1019.0 1019.0 0.0
22/11:00pm 9.4 5.7 4.6 72 2.1 W 13 17 7 9 1019.1 1019.1 0.0
22/10:30pm 9.8 5.7 4.2 68 2.5 W 15 28 8 15 1019.1 1019.1 0.0
22/10:00pm 10.7 5.6 4.2 64 2.9 WSW 20 28 11 15 1019.0 1019.0 0.0
22/09:30pm 10.2 6.4 5.8 74 2.0 WSW 15 22 8 12 1018.9 1018.9 0.0
22/09:00pm 8.9 6.2 7.4 90 0.7 SW 11 17 6 9 1018.7 1018.7 0.0
22/08:30pm 8.6 5.7 6.4 86 1.0 SW 11 13 6 7 1018.4 1018.4 0.0
22/08:00pm 8.8 5.7 5.5 80 1.5 SW 11 13 6 7 1018.1 1018.1 0.0
22/07:30pm 10.8 7.8 6.2 73 2.2 SW 11 13 6 7 1017.6 1017.6 0.0
22/07:00pm 11.9 8.2 6.4 69 2.6 SW 15 20 8 11 1016.9 1016.9 0.0
22/06:30pm 12.9 8.4 6.3 64 3.2 SW 19 28 10 15 1016.4 1016.4 0.0
22/06:00pm 14.1 8.2 5.7 57 4.0 SW 26 35 14 19 1016.0 1016.0 0.0
22/05:30pm 15.5 8.8 3.9 46 5.4 WSW 28 44 15 24 1015.6 1015.6 0.0
22/05:00pm 16.4 9.0 3.8 43 5.9 WSW 32 44 17 24 1015.2 1015.2 0.0
22/04:30pm 17.3 9.0 2.1 36 6.9 WSW 35 48 19 26 1014.8 1014.8 0.0
22/04:00pm 18.3 9.9 1.8 33 7.5 WSW 35 44 19 24 1014.5 1014.5 0.0
22/03:30pm 18.6 10.2 1.6 32 7.7 WSW 35 48 19 26 1014.3 1014.3 0.0
22/03:20pm 18.3 10.1 0.4 30 7.9 W 33 52 18 28 1014.2 1014.2 0.0
22/03:00pm 19.0 9.8 1.1 30 8.1 W 39 52 21 28 1014.1 1014.1 0.0
22/02:30pm 18.3 9.9 1.8 33 7.5 W 35 50 19 27 1014.3 1014.3 0.0
22/02:01pm 18.1 9.4 2.0 34 7.3 W 37 56 20 30 1014.4 1014.4 0.0
22/02:00pm 17.9 8.8 1.8 34 7.3 W 39 56 21 30 1014.4 1014.4 0.0
22/01:43pm 18.1 9.2 2.8 36 7.1 W 39 59 21 32 1014.5 1014.5 0.0
22/01:30pm 17.6 9.7 4.2 41 6.3 W 35 46 19 25 1014.6 1014.6 0.0
22/01:08pm 17.5 10.0 4.5 42 6.2 W 33 52 18 28 1014.6 1014.6 0.0
22/01:00pm 17.7 9.8 4.3 41 6.4 WNW 35 46 19 25 1014.5 1014.5 0.0
22/12:48pm 18.9 11.3 3.9 37 7.1 W 33 52 18 28 1014.6 1014.6 0.0
22/12:30pm 17.6 8.9 3.9 40 6.5 WNW 39 52 21 28 1014.8 1014.8 0.0
22/12:15pm 17.7 8.9 3.6 39 6.6 W 39 59 21 32 1014.8 1014.8 0.0
22/12:00pm 17.5 8.8 4.1 41 6.3 WNW 39 54 21 29 1014.8 1014.8 0.0
22/11:36am 17.2 8.6 4.9 44 5.9 WNW 39 57 21 31 1015.1 1015.1 0.0
22/11:30am 16.0 6.7 5.0 48 5.2 WNW 43 57 23 31 1015.1 1015.1 0.0
22/11:00am 15.5 6.6 3.3 44 5.6 W 39 56 21 30 1015.1 1015.1 0.0
22/10:39am 16.3 9.0 7.0 54 4.6 WNW 35 54 19 29 1015.0 1015.0 0.0
22/10:30am 15.5 7.5 7.3 58 4.1 W 39 56 21 30 1015.0 1015.0 0.0
22/10:11am 15.3 7.3 5.8 53 4.6 W 37 57 20 31 1014.9 1014.9 0.0
22/10:00am 15.0 6.7 6.3 56 4.2 W 39 54 21 29 1014.9 1014.9 0.0
22/09:30am 14.2 7.3 6.6 60 3.7 W 32 52 17 28 1014.7 1014.7 0.0
22/09:29am 14.3 7.4 6.6 60 3.7 W 32 52 17 28 1014.7 1014.7 0.0
22/09:00am 13.6 6.7 7.4 66 3.0 WNW 33 46 18 25 1014.6 1014.6 1.6
22/08:49am 12.7 5.8 7.4 70 2.6 WNW 33 52 18 28 1014.5 1014.5 1.6
22/08:30am 13.1 6.8 7.5 69 2.7 WNW 30 43 16 23 1014.3 1014.3 1.6
22/08:16am 13.2 6.6 7.9 70 2.6 WNW 32 50 17 27 1014.1 1014.1 1.6
22/08:00am 12.9 5.7 7.8 71 2.5 WNW 35 46 19 25 1013.8 1013.8 1.6
22/07:30am 11.6 5.7 7.5 76 2.0 WNW 28 39 15 21 1013.2 1013.2 1.6
22/07:00am 11.3 5.8 7.4 77 1.9 WNW 26 39 14 21 1013.0 1013.0 1.6
22/06:30am 11.0 5.4 7.3 78 1.8 WNW 26 39 14 21 1012.6 1012.6 1.6
22/06:00am 11.5 4.8 7.2 75 2.1 WNW 32 54 17 29 1012.4 1012.4 1.6
22/05:59am 11.5 5.2 7.2 75 2.1 WNW 30 48 16 26 1012.4 1012.4 1.6
22/05:30am 10.7 5.0 6.6 76 1.9 NW 26 39 14 21 1011.9 1011.9 1.6
22/05:00am 11.0 5.4 7.1 77 1.9 WNW 26 35 14 19 1011.7 1011.7 1.6
22/04:30am 10.8 5.1 6.7 76 1.9 WNW 26 35 14 19 1011.3 1011.3 1.6
22/04:00am 10.8 5.1 6.9 77 1.9 WNW 26 35 14 19 1011.0 1011.0 1.6
22/03:30am 10.8 5.6 7.3 79 1.7 NW 24 33 13 18 1010.9 1010.9 1.6
22/03:04am 11.0 5.1 7.5 79 1.7 NW 28 46 15 25 1010.7 1010.7 1.6
22/03:00am 11.2 4.9 7.5 78 1.8 NW 30 46 16 25 1010.7 1010.7 1.6
22/02:43am 11.4 5.2 7.9 79 1.7 NW 30 48 16 26 1010.8 1010.8 1.6
22/02:30am 11.3 5.9 7.8 79 1.7 WNW 26 39 14 21 1010.7 1010.7 1.6
22/02:05am 11.6 5.0 7.7 77 1.9 WNW 32 50 17 27 1010.7 1010.7 1.6
22/02:00am 11.6 5.0 7.7 77 1.9 WNW 32 39 17 21 1010.8 1010.8 1.6
22/01:30am 11.2 6.1 7.5 78 1.8 WNW 24 35 13 19 1011.0 1011.0 1.6
22/01:00am 11.1 5.9 7.4 78 1.8 NW 24 37 13 20 1011.0 1011.0 1.6
22/12:30am 11.4 4.7 7.3 76 2.0 WNW 32 46 17 25 1011.0 1011.0 1.6
22/12:00am 11.8 5.5 7.5 75 2.1 WNW 30 44 16 24 1011.1 1011.1 1.6
 
Date/Time
CST
Temp
°C
App
Temp
°C
Dew
Point
°C
Rel
Hum
%
Delta-T
°C
Wind Press
QNH
hPa
Press
MSL
hPa
Rain since
9am
mm
Dir  Spd
km/h
Gust
km/h
Spd
kts
Gust
kts
21/11:30pm 12.0 5.4 7.9 76 2.0 WNW 32 44 17 24 1010.9 1010.9 1.6
21/11:00pm 11.9 5.8 8.4 79 1.7 WNW 30 44 16 24 1010.7 1010.7 1.6
21/10:30pm 12.5 6.1 8.4 76 2.0 WNW 32 41 17 22 1010.9 1010.9 1.6
21/10:00pm 12.6 7.4 8.9 78 1.9 WNW 26 37 14 20 1011.1 1011.1 1.6

Other formats

Comma delimited format used in spreadsheet applications
http://www.bom.gov.au/fwo/IDS60801/IDS60801.95670.axf

JavaScript Object Notation format (JSON) in row-major order
http://www.bom.gov.au/fwo/IDS60801/IDS60801.95670.json

Data quality

Most of these data are generated automatically and are frequently updated. Quality checks on data are not normally performed. It is possible for incorrect values to appear. Refer to information at About Latest Weather Observations and please check the disclaimer before using these data.